createdAt,value
2018-09-15T00:02:13.291Z,16.43
2018-09-15T00:04:42.571Z,16.46
2018-09-15T00:07:12.107Z,16.38
2018-09-15T00:09:41.579Z,16.47
2018-09-15T00:12:11.563Z,16.46
2018-09-15T00:14:41.238Z,16.49
2018-09-15T00:17:11.859Z,16.38
2018-09-15T00:19:41.760Z,16.47
2018-09-15T00:22:11.179Z,16.31
2018-09-15T00:24:40.840Z,16.26
2018-09-15T00:27:10.411Z,16.10
2018-09-15T00:29:39.877Z,16.29
2018-09-15T00:32:09.921Z,16.34
2018-09-15T00:34:39.696Z,16.40
2018-09-15T00:37:09.417Z,16.37
2018-09-15T00:39:39.224Z,16.39
2018-09-15T00:42:08.633Z,16.39
2018-09-15T00:44:56.341Z,16.41
2018-09-15T00:47:36.918Z,16.52
2018-09-15T00:50:06.551Z,16.31
2018-09-15T00:52:37.771Z,16.29
2018-09-15T00:55:07.020Z,16.60
2018-09-15T00:57:48.878Z,16.36
2018-09-15T01:00:34.765Z,16.28
2018-09-15T01:03:06.847Z,16.32
2018-09-15T01:05:37.437Z,16.51
2018-09-15T01:08:09.380Z,16.57
2018-09-15T01:10:42.223Z,16.57
2018-09-15T01:13:21.383Z,16.49
2018-09-15T01:15:52.679Z,16.58
2018-09-15T01:18:28.112Z,16.54
2018-09-15T01:21:00.726Z,16.45
2018-09-15T01:23:31.214Z,16.42
2018-09-15T01:26:04.932Z,16.35
2018-09-15T01:28:36.019Z,16.45
2018-09-15T01:31:07.857Z,16.47
2018-09-15T01:33:43.263Z,16.38
2018-09-15T01:36:14.646Z,16.40
2018-09-15T01:38:51.530Z,16.51
2018-09-15T01:41:21.746Z,16.38
2018-09-15T01:43:52.066Z,16.48
2018-09-15T01:46:22.928Z,16.49
2018-09-15T01:49:00.284Z,16.55
2018-09-15T01:51:30.648Z,16.57
2018-09-15T01:54:00.907Z,16.41
2018-09-15T01:56:43.110Z,16.29
2018-09-15T01:59:19.334Z,16.32
2018-09-15T02:01:52.807Z,16.29
2018-09-15T02:04:22.495Z,16.28
2018-09-15T02:06:51.977Z,16.30
2018-09-15T02:09:21.236Z,16.09
2018-09-15T02:11:50.571Z,16.20
2018-09-15T02:14:20.115Z,16.06
2018-09-15T02:16:49.620Z,16.06
2018-09-15T02:19:19.089Z,16.06
2018-09-15T02:21:48.626Z,16.10
2018-09-15T02:24:18.918Z,15.99
2018-09-15T02:26:48.780Z,15.94
2018-09-15T02:29:18.178Z,15.76
2018-09-15T02:31:48.091Z,15.76
2018-09-15T02:34:17.551Z,15.54
2018-09-15T02:36:47.115Z,15.59
2018-09-15T02:39:16.607Z,15.56
2018-09-15T02:41:46.104Z,15.45
2018-09-15T02:44:15.567Z,15.48
2018-09-15T02:46:45.279Z,15.54
2018-09-15T02:49:14.589Z,15.50
2018-09-15T02:51:44.121Z,15.38
2018-09-15T02:54:13.802Z,15.33
2018-09-15T02:56:43.254Z,15.32
2018-09-15T02:59:12.506Z,15.34
2018-09-15T03:01:42.095Z,15.23
2018-09-15T03:04:11.610Z,15.33
2018-09-15T03:06:41.563Z,15.30
2018-09-15T03:09:12.510Z,15.28
2018-09-15T03:11:42.321Z,15.14
2018-09-15T03:14:11.563Z,15.16
2018-09-15T03:16:40.986Z,15.06
2018-09-15T03:19:10.279Z,14.87
2018-09-15T03:21:39.817Z,14.93
2018-09-15T03:24:09.298Z,14.98
2018-09-15T03:26:39.282Z,15.02
2018-09-15T03:29:08.730Z,15.04
2018-09-15T03:31:38.308Z,15.01
2018-09-15T03:34:08.727Z,14.86
2018-09-15T03:36:38.887Z,14.86
2018-09-15T03:39:10.516Z,14.77
2018-09-15T03:41:39.864Z,14.71
2018-09-15T03:44:09.742Z,14.55
2018-09-15T03:46:39.164Z,14.61
2018-09-15T03:49:08.702Z,14.46
2018-09-15T03:51:38.150Z,14.49
2018-09-15T03:54:07.822Z,14.27
2018-09-15T03:56:37.716Z,14.14
2018-09-15T03:59:07.495Z,14.06
2018-09-15T04:01:37.015Z,14.09
2018-09-15T04:04:07.342Z,13.98
2018-09-15T04:06:37.376Z,14.04
2018-09-15T04:09:09.841Z,13.98
2018-09-15T04:11:39.689Z,14.02
2018-09-15T04:14:09.790Z,13.95
2018-09-15T04:16:39.421Z,13.92
2018-09-15T04:19:08.905Z,13.89
2018-09-15T04:21:38.431Z,13.92
2018-09-15T04:24:08.115Z,14.06
2018-09-15T04:26:37.818Z,13.99
2018-09-15T04:29:07.261Z,13.92
2018-09-15T04:31:37.458Z,13.95
2018-09-15T04:34:07.140Z,13.89
2018-09-15T04:36:37.250Z,13.90
2018-09-15T04:39:09.836Z,13.99
2018-09-15T04:41:39.595Z,14.01
2018-09-15T04:44:09.499Z,13.99
2018-09-15T04:46:39.575Z,13.93
2018-09-15T04:49:09.300Z,14.04
2018-09-15T04:51:39.029Z,14.10
2018-09-15T04:54:08.791Z,14.22
2018-09-15T04:56:38.362Z,14.15
2018-09-15T04:59:07.929Z,14.23
2018-09-15T05:01:37.392Z,14.21
2018-09-15T05:04:07.135Z,14.15
2018-09-15T05:06:37.439Z,14.06
2018-09-15T05:09:10.463Z,14.04
2018-09-15T05:11:40.612Z,14.04
2018-09-15T05:14:10.494Z,14.17
2018-09-15T05:16:39.963Z,14.25
2018-09-15T05:19:09.477Z,14.29
2018-09-15T05:21:38.974Z,14.20
2018-09-15T05:24:08.501Z,14.28
2018-09-15T05:26:37.981Z,14.47
2018-09-15T05:29:07.874Z,14.43
2018-09-15T05:31:37.400Z,14.37
2018-09-15T05:34:07.390Z,14.46
2018-09-15T05:36:37.039Z,14.57
2018-09-15T05:39:11.512Z,14.60
2018-09-15T05:41:41.171Z,14.77
2018-09-15T05:44:11.035Z,14.62
2018-09-15T05:46:41.196Z,14.71
2018-09-15T05:49:10.730Z,14.78
2018-09-15T05:51:40.552Z,14.83
2018-09-15T05:54:09.948Z,14.61
2018-09-15T05:56:39.439Z,14.83
2018-09-15T05:59:08.957Z,14.92
2018-09-15T06:01:38.672Z,14.92
2018-09-15T06:04:08.751Z,14.83
2018-09-15T06:06:38.517Z,14.89
2018-09-15T06:09:10.578Z,14.83
2018-09-15T06:11:40.893Z,14.69
2018-09-15T06:14:10.294Z,14.56
2018-09-15T06:16:39.743Z,14.57
2018-09-15T06:19:10.210Z,14.56
2018-09-15T06:21:39.431Z,14.54
2018-09-15T06:24:09.519Z,14.71
2018-09-15T06:26:39.273Z,14.86
2018-09-15T06:29:08.738Z,15.04
2018-09-15T06:31:38.302Z,15.09
2018-09-15T06:34:08.269Z,15.43
2018-09-15T06:36:37.919Z,15.17
2018-09-15T06:39:09.778Z,15.28
2018-09-15T06:41:39.797Z,15.36
2018-09-15T06:44:09.455Z,15.50
2018-09-15T06:46:38.970Z,16.22
2018-09-15T06:49:08.491Z,16.03
2018-09-15T06:51:37.734Z,15.99
2018-09-15T06:54:07.837Z,15.70
2018-09-15T06:56:37.380Z,15.83
2018-09-15T06:59:07.278Z,15.86
2018-09-15T07:01:41.081Z,15.52
2018-09-15T07:04:12.485Z,15.73
2018-09-15T07:06:42.431Z,15.72
2018-09-15T07:09:13.295Z,15.42
2018-09-15T07:11:43.210Z,15.47
2018-09-15T07:14:12.727Z,15.22
2018-09-15T07:16:42.295Z,15.02
2018-09-15T07:19:12.107Z,15.12
2018-09-15T07:21:41.963Z,15.22
2018-09-15T07:24:12.825Z,15.45
2018-09-15T07:26:42.283Z,15.73
2018-09-15T07:29:12.840Z,15.63
2018-09-15T07:31:42.569Z,15.33
2018-09-15T07:34:12.263Z,15.28
2018-09-15T07:36:41.954Z,15.28
2018-09-15T07:39:12.302Z,15.36
2018-09-15T07:41:42.194Z,15.46
2018-09-15T07:44:11.721Z,15.58
2018-09-15T07:46:41.176Z,15.74
2018-09-15T07:49:10.392Z,15.73
2018-09-15T07:51:40.268Z,15.79
2018-09-15T07:54:10.171Z,16.22
2018-09-15T07:56:40.034Z,16.50
2018-09-15T07:59:10.813Z,16.76
2018-09-15T08:01:40.055Z,16.65
2018-09-15T08:04:09.833Z,16.62
2018-09-15T08:06:39.863Z,16.69
2018-09-15T08:09:10.142Z,17.14
2018-09-15T08:11:40.113Z,17.84
2018-09-15T08:14:10.622Z,17.97
2018-09-15T08:16:40.475Z,17.91
2018-09-15T08:19:11.813Z,17.72
2018-09-15T08:21:41.818Z,17.42
2018-09-15T08:24:11.612Z,17.02
2018-09-15T08:26:41.040Z,17.34
2018-09-15T08:29:10.982Z,17.54
2018-09-15T08:31:40.242Z,17.55
2018-09-15T08:34:10.197Z,17.63
2018-09-15T08:36:40.415Z,17.47
2018-09-15T08:39:11.318Z,17.86
2018-09-15T08:41:41.407Z,17.90
2018-09-15T08:44:10.863Z,17.86
2018-09-15T08:46:40.386Z,18.02
2018-09-15T08:49:11.886Z,17.95
2018-09-15T08:51:41.472Z,17.92
2018-09-15T08:54:10.930Z,17.32
2018-09-15T08:56:40.458Z,17.58
2018-09-15T08:59:10.401Z,17.42
2018-09-15T09:01:39.686Z,18.17
2018-09-15T09:04:09.154Z,17.84
2018-09-15T09:06:38.725Z,17.91
2018-09-15T09:09:10.555Z,17.90
2018-09-15T09:11:40.383Z,17.79
2018-09-15T09:14:10.126Z,18.03
2018-09-15T09:16:40.506Z,18.01
2018-09-15T09:19:10.102Z,17.90
2018-09-15T09:21:39.352Z,17.93
2018-09-15T09:24:09.106Z,18.17
2018-09-15T09:26:38.614Z,17.93
2018-09-15T09:29:08.894Z,17.92
2018-09-15T09:31:38.431Z,18.30
2018-09-15T09:34:07.938Z,18.66
2018-09-15T09:36:37.402Z,18.78
2018-09-15T09:39:10.283Z,18.97
2018-09-15T09:41:39.736Z,18.64
2018-09-15T09:44:09.868Z,18.76
2018-09-15T09:46:39.955Z,18.34
2018-09-15T09:49:09.571Z,18.56
2018-09-15T09:51:39.131Z,18.45
2018-09-15T09:54:08.689Z,18.21
2018-09-15T09:56:38.358Z,18.22
2018-09-15T09:59:08.218Z,18.34
2018-09-15T10:01:43.329Z,18.48
2018-09-15T10:04:13.654Z,18.72
2018-09-15T10:06:43.192Z,19.17
2018-09-15T10:09:12.779Z,19.25
2018-09-15T10:11:42.616Z,19.31
2018-09-15T10:14:12.150Z,19.60
2018-09-15T10:16:41.391Z,19.90
2018-09-15T10:19:10.895Z,19.98
2018-09-15T10:21:40.905Z,19.88
2018-09-15T10:24:10.086Z,19.50
2018-09-15T10:26:39.812Z,19.81
2018-09-15T10:29:09.387Z,19.98
2018-09-15T10:31:39.893Z,20.65
2018-09-15T10:34:09.766Z,20.93
2018-09-15T10:36:39.666Z,21.70
2018-09-15T10:39:10.473Z,21.82
2018-09-15T10:41:39.733Z,22.09
2018-09-15T10:44:09.399Z,23.02
2018-09-15T10:46:39.128Z,23.25
2018-09-15T10:49:09.275Z,23.16
2018-09-15T10:51:38.960Z,22.79
2018-09-15T10:54:08.497Z,22.54
2018-09-15T10:56:37.775Z,21.46
2018-09-15T10:59:07.329Z,21.52
2018-09-15T11:01:36.958Z,22.25
2018-09-15T11:04:06.620Z,21.61
2018-09-15T11:06:36.829Z,21.09
2018-09-15T11:09:09.383Z,20.77
2018-09-15T11:11:39.116Z,20.73
2018-09-15T11:14:08.406Z,20.87
2018-09-15T11:16:38.339Z,22.24
2018-09-15T11:19:08.611Z,23.14
2018-09-15T11:21:38.202Z,24.34
2018-09-15T11:24:07.810Z,24.01
2018-09-15T11:26:37.522Z,24.37
2018-09-15T11:29:07.485Z,24.42
2018-09-15T11:31:36.978Z,23.85
2018-09-15T11:34:06.513Z,24.55
2018-09-15T11:36:36.010Z,24.70
2018-09-15T11:39:09.217Z,24.93
2018-09-15T11:41:39.172Z,24.38
2018-09-15T11:44:09.089Z,23.85
2018-09-15T11:46:38.556Z,25.15
2018-09-15T11:49:08.222Z,25.59
2018-09-15T11:51:38.207Z,24.33
2018-09-15T11:54:09.770Z,23.12
2018-09-15T11:56:39.822Z,22.67
2018-09-15T11:59:09.338Z,21.97
2018-09-15T12:01:39.050Z,21.86
2018-09-15T12:04:08.536Z,21.82
2018-09-15T12:06:38.062Z,21.50
2018-09-15T12:09:08.954Z,21.92
2018-09-15T12:11:38.939Z,23.15
2018-09-15T12:14:09.312Z,23.19
2018-09-15T12:16:38.925Z,23.05
2018-09-15T12:19:08.693Z,23.38
2018-09-15T12:21:38.613Z,22.25
2018-09-15T12:24:08.124Z,21.78
2018-09-15T12:26:37.966Z,21.71
2018-09-15T12:29:07.491Z,21.71
2018-09-15T12:31:37.960Z,21.70
2018-09-15T12:34:07.739Z,21.75
2018-09-15T12:36:37.215Z,22.55
2018-09-15T12:39:08.511Z,22.45
2018-09-15T12:41:38.027Z,23.02
2018-09-15T12:44:07.823Z,23.38
2018-09-15T12:46:37.995Z,23.43
2018-09-15T12:49:08.111Z,23.18
2018-09-15T12:51:38.266Z,22.65
2018-09-15T12:54:08.150Z,22.91
2018-09-15T12:56:37.846Z,22.94
2018-09-15T12:59:07.894Z,22.59
2018-09-15T13:01:37.614Z,22.98
2018-09-15T13:04:07.109Z,23.62
2018-09-15T13:06:36.612Z,23.90
2018-09-15T13:09:10.629Z,23.16
2018-09-15T13:11:40.142Z,22.41
2018-09-15T13:14:10.207Z,22.08
2018-09-15T13:16:39.938Z,22.05
2018-09-15T13:19:10.512Z,21.91
2018-09-15T13:21:39.879Z,21.65
2018-09-15T13:24:09.447Z,21.84
2018-09-15T13:26:39.038Z,21.69
2018-09-15T13:29:08.689Z,21.70
2018-09-15T13:31:38.303Z,21.74
2018-09-15T13:34:08.602Z,22.39
2018-09-15T13:36:38.312Z,22.76
2018-09-15T13:39:10.463Z,22.22
2018-09-15T13:41:39.979Z,22.92
2018-09-15T13:44:09.811Z,22.94
2018-09-15T13:46:39.413Z,23.09
2018-09-15T13:49:09.423Z,23.19
2018-09-15T13:51:39.170Z,23.23
2018-09-15T13:54:09.050Z,23.18
2018-09-15T13:56:38.810Z,22.78
2018-09-15T13:59:08.885Z,22.71
2018-09-15T14:01:38.398Z,22.59
2018-09-15T14:04:08.318Z,22.26
2018-09-15T14:06:37.988Z,21.98
2018-09-15T14:09:10.493Z,21.96
2018-09-15T14:11:40.351Z,22.00
2018-09-15T14:14:10.088Z,21.87
2018-09-15T14:16:39.823Z,21.75
2018-09-15T14:19:09.507Z,21.78
2018-09-15T14:21:39.135Z,21.87
2018-09-15T14:24:08.700Z,21.76
2018-09-15T14:26:38.398Z,21.66
2018-09-15T14:29:08.351Z,21.75
2018-09-15T14:31:37.975Z,21.89
2018-09-15T14:34:07.250Z,21.82
2018-09-15T14:36:36.818Z,22.24
2018-09-15T14:39:09.215Z,22.36
2018-09-15T14:41:39.267Z,22.56
2018-09-15T14:44:08.847Z,21.96
2018-09-15T14:46:38.328Z,22.05
2018-09-15T14:49:07.838Z,21.90
2018-09-15T14:51:37.495Z,21.78
2018-09-15T14:54:07.014Z,21.69
2018-09-15T14:56:36.562Z,21.66
2018-09-15T14:59:07.127Z,21.41
2018-09-15T15:01:36.763Z,21.36
2018-09-15T15:04:07.150Z,21.40
2018-09-15T15:06:36.821Z,21.34
2018-09-15T15:09:08.118Z,21.37
2018-09-15T15:11:37.923Z,21.30
2018-09-15T15:14:08.290Z,21.23
2018-09-15T15:16:38.104Z,21.14
2018-09-15T15:19:08.283Z,21.15
2018-09-15T15:21:37.591Z,21.01
2018-09-15T15:24:07.447Z,21.11
2018-09-15T15:26:38.104Z,20.84
2018-09-15T15:29:08.215Z,20.93
2018-09-15T15:31:37.812Z,21.18
2018-09-15T15:34:07.296Z,21.15
2018-09-15T15:36:37.592Z,21.12
2018-09-15T15:39:08.782Z,21.02
2018-09-15T15:41:38.303Z,21.04
2018-09-15T15:44:07.955Z,21.01
2018-09-15T15:46:37.698Z,21.02
2018-09-15T15:49:07.607Z,21.05
2018-09-15T15:51:37.487Z,21.16
2018-09-15T15:54:06.795Z,21.06
2018-09-15T15:56:36.703Z,20.79
2018-09-15T15:59:06.257Z,20.80
2018-09-15T16:01:36.355Z,20.88
2018-09-15T16:04:06.554Z,20.52
2018-09-15T16:06:36.367Z,20.41
2018-09-15T16:09:08.229Z,20.60
2018-09-15T16:11:38.599Z,20.60
2018-09-15T16:14:08.642Z,20.72
2018-09-15T16:16:38.076Z,20.48
2018-09-15T16:19:07.620Z,20.57
2018-09-15T16:21:37.018Z,20.48
2018-09-15T16:24:07.906Z,20.62
2018-09-15T16:26:38.282Z,20.64
2018-09-15T16:29:08.139Z,20.70
2018-09-15T16:31:37.647Z,20.60
2018-09-15T16:34:07.690Z,20.64
2018-09-15T16:36:37.947Z,20.73
2018-09-15T16:39:10.854Z,20.69
2018-09-15T16:41:41.118Z,20.73
2018-09-15T16:44:10.680Z,20.76
2018-09-15T16:46:40.736Z,20.61
2018-09-15T16:49:10.885Z,20.52
2018-09-15T16:51:40.343Z,20.54
2018-09-15T16:54:10.012Z,20.53
2018-09-15T16:56:39.719Z,20.34
2018-09-15T16:59:08.954Z,20.12
2018-09-15T17:01:38.840Z,20.06
2018-09-15T17:04:08.574Z,20.00
2018-09-15T17:06:38.243Z,19.83
2018-09-15T17:09:10.319Z,19.87
2018-09-15T17:11:39.903Z,19.82
2018-09-15T17:14:09.438Z,19.77
2018-09-15T17:16:40.113Z,19.68
2018-09-15T17:19:09.643Z,19.62
2018-09-15T17:21:39.151Z,19.48
2018-09-15T17:24:09.368Z,19.40
2018-09-15T17:26:39.854Z,19.33
2018-09-15T17:29:09.478Z,19.30
2018-09-15T17:31:39.274Z,19.24
2018-09-15T17:34:08.726Z,19.10
2018-09-15T17:36:40.010Z,18.90
2018-09-15T17:39:11.376Z,18.84
2018-09-15T17:41:41.127Z,18.73
2018-09-15T17:44:11.026Z,18.62
2018-09-15T17:46:41.146Z,18.44
2018-09-15T17:49:10.645Z,18.33
2018-09-15T17:51:40.568Z,18.29
2018-09-15T17:54:10.063Z,18.20
2018-09-15T17:56:40.017Z,18.23
2018-09-15T17:59:09.666Z,18.14
2018-09-15T18:01:39.635Z,18.00
2018-09-15T18:04:08.879Z,17.77
2018-09-15T18:06:38.316Z,17.67
2018-09-15T18:09:08.451Z,17.64
2018-09-15T18:11:37.702Z,17.58
2018-09-15T18:14:07.199Z,17.43
2018-09-15T18:16:36.742Z,17.31
2018-09-15T18:19:06.143Z,17.37
2018-09-15T18:21:35.829Z,17.45
2018-09-15T18:24:05.578Z,17.41
2018-09-15T18:26:34.882Z,17.24
2018-09-15T18:29:04.758Z,17.16
2018-09-15T18:31:35.123Z,17.24
2018-09-15T18:34:04.612Z,17.27
2018-09-15T18:36:34.215Z,17.25
2018-09-15T18:39:04.236Z,17.28
2018-09-15T18:41:33.809Z,17.15
2018-09-15T18:44:03.298Z,17.08
2018-09-15T18:46:32.925Z,17.07
2018-09-15T18:49:02.795Z,16.90
2018-09-15T18:51:32.013Z,16.84
2018-09-15T18:54:01.629Z,16.71
2018-09-15T18:56:31.227Z,16.89
2018-09-15T18:59:00.745Z,16.54
2018-09-15T19:01:30.694Z,16.49
2018-09-15T19:03:59.943Z,16.47
2018-09-15T19:06:30.422Z,16.39
2018-09-15T19:09:00.175Z,16.35
2018-09-15T19:11:30.017Z,16.51
2018-09-15T19:14:00.316Z,16.17
2018-09-15T19:16:29.749Z,16.22
2018-09-15T19:18:59.195Z,16.25
2018-09-15T19:21:28.923Z,16.22
2018-09-15T19:23:58.783Z,16.21
2018-09-15T19:26:28.608Z,16.04
2018-09-15T19:28:58.332Z,16.18
2018-09-15T19:31:27.771Z,16.08
2018-09-15T19:33:58.247Z,16.01
2018-09-15T19:36:27.823Z,16.08
2018-09-15T19:38:57.321Z,16.17
2018-09-15T19:41:27.098Z,16.22
2018-09-15T19:43:56.715Z,16.17
2018-09-15T19:46:26.415Z,16.11
2018-09-15T19:48:55.943Z,15.86
2018-09-15T19:51:25.680Z,15.95
2018-09-15T19:53:55.554Z,15.99
2018-09-15T19:56:25.034Z,15.86
2018-09-15T19:58:54.536Z,15.70
2018-09-15T20:01:24.198Z,15.74
2018-09-15T20:03:53.787Z,15.64
2018-09-15T20:06:23.078Z,15.66
2018-09-15T20:08:52.708Z,15.67
2018-09-15T20:11:23.533Z,15.71
2018-09-15T20:13:53.247Z,15.75
2018-09-15T20:16:21.481Z,15.66
2018-09-15T20:18:50.467Z,15.76
2018-09-15T20:21:18.583Z,15.73
2018-09-15T20:23:48.402Z,15.56
2018-09-15T20:26:17.903Z,15.64
2018-09-15T20:28:47.396Z,15.72
2018-09-15T20:31:17.553Z,15.60
2018-09-15T20:33:47.374Z,15.33
2018-09-15T20:36:16.950Z,15.39
2018-09-15T20:38:46.423Z,15.21
2018-09-15T20:41:16.112Z,15.36
2018-09-15T20:43:46.470Z,15.19
2018-09-15T20:46:16.360Z,15.15
2018-09-15T20:48:46.687Z,15.29
2018-09-15T20:51:16.154Z,15.17
2018-09-15T20:53:46.331Z,15.24
2018-09-15T20:56:15.797Z,15.29
2018-09-15T20:58:45.763Z,15.18
2018-09-15T21:01:15.286Z,15.05
2018-09-15T21:03:45.164Z,15.17
2018-09-15T21:06:15.213Z,15.26
2018-09-15T21:08:44.995Z,15.09
2018-09-15T21:11:14.719Z,15.14
2018-09-15T21:13:44.227Z,15.28
2018-09-15T21:16:13.730Z,15.20
2018-09-15T21:18:43.494Z,15.07
2018-09-15T21:21:12.782Z,14.98
2018-09-15T21:23:42.503Z,14.70
2018-09-15T21:26:11.961Z,14.45
2018-09-15T21:28:41.436Z,14.48
2018-09-15T21:31:10.910Z,14.25
2018-09-15T21:33:40.927Z,14.28
2018-09-15T21:36:10.774Z,14.35
2018-09-15T21:38:40.279Z,14.34
2018-09-15T21:41:09.637Z,14.33
2018-09-15T21:43:39.080Z,14.31
2018-09-15T21:46:08.603Z,14.30
2018-09-15T21:48:38.104Z,14.16
2018-09-15T21:51:07.515Z,14.29
2018-09-15T21:53:37.293Z,14.14
2018-09-15T21:56:07.226Z,14.07
2018-09-15T21:58:36.905Z,13.85
2018-09-15T22:01:07.087Z,13.74
2018-09-15T22:03:42.214Z,13.70
2018-09-15T22:06:12.431Z,13.81
2018-09-15T22:08:41.701Z,13.81
2018-09-15T22:11:11.225Z,13.91
2018-09-15T22:13:40.739Z,13.80
2018-09-15T22:16:10.242Z,13.78
2018-09-15T22:18:39.910Z,13.74
2018-09-15T22:21:09.721Z,13.66
2018-09-15T22:23:39.123Z,13.56
2018-09-15T22:26:08.719Z,13.49
2018-09-15T22:28:38.591Z,13.47
2018-09-15T22:31:07.866Z,13.38
2018-09-15T22:33:37.354Z,13.35
2018-09-15T22:36:07.028Z,13.43
2018-09-15T22:38:36.567Z,13.40
2018-09-15T22:41:06.521Z,13.39
2018-09-15T22:43:36.522Z,13.55
2018-09-15T22:46:06.784Z,13.37
2018-09-15T22:48:36.697Z,13.34
2018-09-15T22:51:07.447Z,13.28
2018-09-15T22:53:36.874Z,13.19
2018-09-15T22:56:06.804Z,13.21
2018-09-15T22:58:36.521Z,13.18
2018-09-15T23:01:06.607Z,13.31
2018-09-15T23:03:36.107Z,13.34
2018-09-15T23:06:06.126Z,13.26
2018-09-15T23:08:36.409Z,13.28
2018-09-15T23:11:06.772Z,13.16
2018-09-15T23:13:36.747Z,13.20
2018-09-15T23:16:06.546Z,13.18
2018-09-15T23:18:36.247Z,13.28
2018-09-15T23:21:06.286Z,13.22
2018-09-15T23:23:35.701Z,13.23
2018-09-15T23:26:05.318Z,13.20
2018-09-15T23:28:35.291Z,13.12
2018-09-15T23:31:05.399Z,13.12
2018-09-15T23:33:34.926Z,13.10
2018-09-15T23:36:04.430Z,13.03
2018-09-15T23:38:33.911Z,12.87
2018-09-15T23:41:03.620Z,12.92
2018-09-15T23:43:33.191Z,12.86
2018-09-15T23:46:03.029Z,12.86
2018-09-15T23:48:32.570Z,12.73
2018-09-15T23:51:02.050Z,12.74
2018-09-15T23:53:31.596Z,12.67
2018-09-15T23:56:01.017Z,12.64
2018-09-15T23:58:30.578Z,12.54
